Buffalo Prairie, Illinois
Current Conditions -  °F | °C
As of 6:15 PM on Monday 20 Oct 2014 (Local Time) from KMUT Reporting Station
Clear Clear  
Wind Chill: 64°   Ceiling: Unl
Heat Index: 64°   Visibility: 10mi
Dew Point: 43°   Wind: 5mph
Humidity: 45%   Direction: 310°NW
Pressure: 29.96"   Gusts: NA
Location:  41.34°N, 90.86°W
Report Text: KMUT 202315Z AUTO 31004KT 10SM CLR 18/06 A2996 RMK AO2
Loading
Personal Weather Stations






























Interactive Weather Map
Tropical Storm Tracking
New forecast layout! Learn more

10-Day Weather Forecast

Advertisements
Track Severe Weather on mobile